Aérodrome :
LOGIN :

S'inscrire | Disclaimer

   EN    FR    IT 

 










Légende :    VFR   VFR Marginal   IFR   IFR Intensif   IFR Très Intensif
Visi : 
Plafond : 
>= 8 km
>= 3000ft
5 à 8 km
1000 à 3000 ft
1500m à 5 km
500 à 1000 ft
800 à 1500m
200 à 500 ft
< 800m
< 200 ft
Symboles :   Orages  Brouillard  Fortes neiges  Fortes précipitations  Vent > 20 kt
SIGMETs :   Divers  Orages  Givrage  Turbulence  Onde Orograph.  Cendres Volcan.







- Altitude de l'aérodrome : 37 ft


EGOW - Woodvale

DERNIER METAR :
  • 211320Z 22013KT 9999 FEW020 SCT030 19/13 Q1022 RMK BLU

METARs EXPIRÉS :
  • 211250Z 21010KT 9999 FEW022 SCT030 19/13 Q1023 RMK BLU
  • 211220Z 20009KT 9999 FEW022 BKN030 17/14 Q1023 RMK BLU
  • 211150Z 22010KT 9999 FEW022 BKN030 17/14 Q1023 RMK BLU
  • 211120Z 23013G27 9000 -RA FEW022 BKN030 17/14 Q1024 RMK BLU
  • 211050Z 20012KT 9999 SCT025 19/13 Q1024 RMK BLU
  • 211020Z 22015KT 9999 FEW030 19/13 Q1024 RMK BLU

TAF TAF EGOW
Valide du 21 à 12h jusqu'au 21 à 18h UTC


211040Z 2112/2118 22014KT 9999 FEW020
TEMPO 2112/2118 22015G25KT
PROB30
TEMPO 2112/2114 5000 SHRA BKN020TCU
Pas de NOTAMs connus pour ce terrain.



MET'MAP, la Météo Aéronautique d'un coup d'oeil ! - Copyright ORBIFLY Décembre 2007 - Disclaimer

ORBIFLY MET'MAP TEAM :

Programmation & Développement : Alexandra Zaïnal
Conception & Développement : Baudouin d'Aumeries
Co-Programmation & Développement : Marc-Olivier Méhu
Soutien technique & logistique : Manuel Goepfert

Contact : metmap@orbifly.com




SOURCES & CREDITS :

   NOAA